createdAt,value
2018-08-30T01:21:53.330Z,16.83
2018-08-30T01:24:24.699Z,16.87
2018-08-30T01:26:57.417Z,15.37
2018-08-30T01:29:34.062Z,11.50
2018-08-30T01:32:08.969Z,11.88
2018-08-30T01:34:41.314Z,13.37
2018-08-30T01:37:12.148Z,11.90
2018-08-30T01:39:42.423Z,11.45
2018-08-30T01:42:12.473Z,12.20
2018-08-30T01:44:42.809Z,12.47
2018-08-30T01:47:13.076Z,12.03
2018-08-30T01:49:42.990Z,11.67
2018-08-30T01:52:12.586Z,10.75
2018-08-30T01:54:42.619Z,11.00
2018-08-30T01:57:12.802Z,10.10
2018-08-30T01:59:44.741Z,9.60
2018-08-30T02:02:16.243Z,8.73
2018-08-30T02:04:49.932Z,8.47
2018-08-30T02:07:20.616Z,9.53
2018-08-30T02:09:50.728Z,8.80
2018-08-30T02:12:21.091Z,9.23
2018-08-30T02:14:50.349Z,10.10
2018-08-30T02:17:20.357Z,9.85
2018-08-30T02:19:50.426Z,8.80
2018-08-30T02:22:19.631Z,10.40
2018-08-30T02:24:52.446Z,10.50
2018-08-30T02:27:25.221Z,10.33
2018-08-30T02:29:55.965Z,9.78
2018-08-30T02:32:25.914Z,9.93
2018-08-30T02:34:59.478Z,9.10
2018-08-30T02:37:30.101Z,9.20
2018-08-30T02:40:00.235Z,9.80
2018-08-30T02:42:30.238Z,10.00
2018-08-30T02:45:00.388Z,8.70
2018-08-30T02:47:30.598Z,7.40
2018-08-30T02:50:00.596Z,8.37
2018-08-30T02:52:30.555Z,8.10
2018-08-30T02:55:01.206Z,8.43
2018-08-30T02:57:31.394Z,7.00
2018-08-30T03:00:01.519Z,6.23
2018-08-30T03:02:31.701Z,6.93
2018-08-30T03:05:03.068Z,9.03
2018-08-30T03:07:33.021Z,6.77
2018-08-30T03:10:03.340Z,6.57
2018-08-30T03:12:33.619Z,5.80
2018-08-30T03:15:15.746Z,4.97
2018-08-30T03:17:45.276Z,4.90
2018-08-30T03:20:18.109Z,4.83
2018-08-30T03:22:52.657Z,4.83
2018-08-30T03:25:22.604Z,4.23
2018-08-30T03:27:52.661Z,3.90
2018-08-30T03:30:22.460Z,3.37
2018-08-30T03:32:52.792Z,3.53
2018-08-30T03:35:22.766Z,3.70
2018-08-30T03:37:52.813Z,3.50
2018-08-30T03:40:22.869Z,4.15
2018-08-30T03:42:54.266Z,3.63
2018-08-30T03:45:25.267Z,3.10
2018-08-30T03:47:54.987Z,3.03
2018-08-30T03:50:24.736Z,2.73
2018-08-30T03:52:55.234Z,2.30
2018-08-30T03:55:24.820Z,2.50
2018-08-30T03:57:54.879Z,2.27
2018-08-30T04:00:24.466Z,2.60
2018-08-30T04:02:54.606Z,2.57
2018-08-30T04:05:24.724Z,2.87
2018-08-30T04:07:54.567Z,3.30
2018-08-30T04:10:24.189Z,3.47
2018-08-30T04:12:55.379Z,3.63
2018-08-30T04:15:25.556Z,3.13
2018-08-30T04:17:55.710Z,3.17
2018-08-30T04:20:25.586Z,2.97
2018-08-30T04:22:56.610Z,3.50
2018-08-30T04:25:29.242Z,3.90
2018-08-30T04:27:59.511Z,3.80
2018-08-30T04:30:31.340Z,4.10
2018-08-30T04:33:34.103Z,3.70
2018-08-30T04:36:03.297Z,3.37
2018-08-30T04:38:35.506Z,4.22
2018-08-30T04:41:07.151Z,3.60
2018-08-30T04:43:36.967Z,3.98
2018-08-30T04:46:06.289Z,3.80
2018-08-30T04:48:37.775Z,4.12
2018-08-30T04:51:07.968Z,3.70
2018-08-30T04:53:37.640Z,3.10
2018-08-30T04:56:07.689Z,4.40
2018-08-30T04:58:37.308Z,4.10
2018-08-30T05:01:07.355Z,4.53
2018-08-30T05:03:37.442Z,4.80
2018-08-30T05:06:12.535Z,5.15
2018-08-30T05:08:42.702Z,5.03
2018-08-30T05:11:12.680Z,5.23
2018-08-30T05:13:45.636Z,6.43
2018-08-30T05:16:15.309Z,6.33
2018-08-30T05:18:45.222Z,6.97
2018-08-30T05:21:13.677Z,7.83
2018-08-30T05:23:42.091Z,7.97
2018-08-30T05:26:14.601Z,7.72
2018-08-30T05:28:44.250Z,8.93
2018-08-30T05:31:12.668Z,9.45
2018-08-30T05:33:41.123Z,9.97
2018-08-30T05:36:09.574Z,10.40
2018-08-30T05:38:38.036Z,10.08
2018-08-30T05:41:06.554Z,11.50
2018-08-30T05:43:36.273Z,11.33
2018-08-30T05:46:04.781Z,11.45
2018-08-30T05:48:33.206Z,13.53
2018-08-30T05:51:02.379Z,12.35
2018-08-30T05:53:30.816Z,13.03
2018-08-30T05:56:00.025Z,13.93
2018-08-30T05:58:28.542Z,13.28
2018-08-30T06:00:57.240Z,13.93
2018-08-30T06:03:25.821Z,13.63
2018-08-30T06:05:54.457Z,13.83
2018-08-30T06:08:24.546Z,14.30
2018-08-30T06:10:52.900Z,15.03
2018-08-30T06:13:21.316Z,14.13
2018-08-30T06:15:49.784Z,15.25
2018-08-30T06:18:18.258Z,15.27
2018-08-30T06:20:47.557Z,14.10
2018-08-30T06:23:16.028Z,15.63
2018-08-30T06:25:44.520Z,15.30
2018-08-30T06:28:12.984Z,15.73
2018-08-30T06:30:41.441Z,14.07
2018-08-30T06:33:09.864Z,15.80
2018-08-30T06:35:38.309Z,15.33
2018-08-30T06:38:06.722Z,15.27
2018-08-30T06:40:35.079Z,15.50
2018-08-30T06:43:03.510Z,17.70
2018-08-30T06:45:31.950Z,17.87
2018-08-30T06:48:00.944Z,15.93
2018-08-30T06:50:29.374Z,17.42
2018-08-30T06:52:59.285Z,16.13
2018-08-30T06:55:28.288Z,17.40
2018-08-30T06:57:56.903Z,18.80
2018-08-30T07:00:25.972Z,16.42
2018-08-30T07:02:54.443Z,17.23
2018-08-30T07:05:23.357Z,18.30
2018-08-30T07:07:51.911Z,17.90
2018-08-30T07:10:20.688Z,17.57
2018-08-30T07:12:49.500Z,18.43
2018-08-30T07:15:17.924Z,14.90
2018-08-30T07:17:46.395Z,16.60
2018-08-30T07:20:14.839Z,17.70
2018-08-30T07:22:43.801Z,17.70
2018-08-30T07:25:12.319Z,18.27
2018-08-30T07:27:40.930Z,17.50
2018-08-30T07:30:12.072Z,17.33
2018-08-30T07:32:40.517Z,18.23
2018-08-30T07:35:09.019Z,18.73
2018-08-30T07:37:56.452Z,18.25
2018-08-30T07:40:24.900Z,18.37
2018-08-30T07:42:53.629Z,16.87
2018-08-30T07:45:22.069Z,18.80
2018-08-30T07:47:50.405Z,17.50
2018-08-30T07:50:18.892Z,17.90
2018-08-30T07:52:47.305Z,17.53
2018-08-30T07:55:15.765Z,18.60
2018-08-30T07:57:44.133Z,17.43
2018-08-30T08:00:12.605Z,18.53
2018-08-30T08:02:41.023Z,18.50
2018-08-30T08:05:09.673Z,18.45
2018-08-30T08:07:38.133Z,16.37
2018-08-30T08:10:06.611Z,17.20
2018-08-30T08:12:50.123Z,16.87
2018-08-30T08:15:18.429Z,16.53
2018-08-30T08:17:46.839Z,17.00
2018-08-30T08:20:15.264Z,17.57
2018-08-30T08:22:43.673Z,17.60
2018-08-30T08:25:12.176Z,17.50
2018-08-30T08:27:40.550Z,19.52
2018-08-30T08:30:09.110Z,17.80
2018-08-30T08:32:40.665Z,16.23
2018-08-30T08:35:09.096Z,18.17
2018-08-30T08:37:37.568Z,18.02
2018-08-30T08:40:06.068Z,15.67
2018-08-30T08:42:34.480Z,16.27
2018-08-30T08:45:02.938Z,17.13
2018-08-30T08:47:31.972Z,17.20
2018-08-30T08:50:00.359Z,16.77
2018-08-30T08:52:28.748Z,16.77
2018-08-30T08:54:57.203Z,15.60
2018-08-30T08:57:26.691Z,15.23
2018-08-30T08:59:55.112Z,15.70
2018-08-30T09:02:23.508Z,16.00
2018-08-30T09:04:52.288Z,16.07
2018-08-30T09:07:20.741Z,16.70
2018-08-30T09:09:49.152Z,16.20
2018-08-30T09:12:17.576Z,15.55
2018-08-30T09:14:45.985Z,16.20
2018-08-30T09:17:14.383Z,16.33
2018-08-30T09:19:42.768Z,15.63
2018-08-30T09:22:11.188Z,13.83
2018-08-30T09:24:39.645Z,16.20
2018-08-30T09:27:08.926Z,14.90
2018-08-30T09:29:37.321Z,14.80
2018-08-30T09:32:06.252Z,17.27
2018-08-30T09:34:34.813Z,15.30
2018-08-30T09:37:03.330Z,14.85
2018-08-30T09:39:32.291Z,16.53
2018-08-30T09:42:00.845Z,14.60
2018-08-30T09:44:29.995Z,15.33
2018-08-30T09:46:58.438Z,15.58
2018-08-30T09:49:26.943Z,14.87
2018-08-30T09:51:55.380Z,14.93
2018-08-30T09:54:23.776Z,14.27
2018-08-30T09:56:52.963Z,14.25
2018-08-30T09:59:21.263Z,13.67
2018-08-30T10:01:54.429Z,14.43
2018-08-30T10:04:22.812Z,13.78
2018-08-30T10:06:51.856Z,14.47
2018-08-30T10:09:20.466Z,13.83
2018-08-30T10:11:48.960Z,13.30
2018-08-30T10:14:17.388Z,13.40
2018-08-30T10:16:45.757Z,12.88
2018-08-30T10:19:14.586Z,12.77
2018-08-30T10:21:43.142Z,13.80
2018-08-30T10:24:12.147Z,12.10
2018-08-30T10:26:41.512Z,12.73
2018-08-30T10:29:10.310Z,12.83
2018-08-30T10:31:39.146Z,12.70
2018-08-30T10:34:07.440Z,12.98
2018-08-30T10:36:35.885Z,12.60
2018-08-30T10:39:06.032Z,12.78
2018-08-30T10:41:34.457Z,13.32
2018-08-30T10:44:02.816Z,13.80
2018-08-30T10:46:31.449Z,11.90
2018-08-30T10:48:59.836Z,12.50
2018-08-30T10:51:28.220Z,13.40
2018-08-30T10:53:56.648Z,13.00
2018-08-30T10:56:25.143Z,12.10
2018-08-30T10:58:53.533Z,12.40
2018-08-30T11:01:21.972Z,12.80
2018-08-30T11:03:50.518Z,12.73
2018-08-30T11:06:19.136Z,11.22
2018-08-30T11:08:47.596Z,11.05
2018-08-30T11:11:16.011Z,11.20
2018-08-30T11:13:44.457Z,11.20
2018-08-30T11:16:12.962Z,10.83
2018-08-30T11:18:41.399Z,10.33
2018-08-30T11:21:09.822Z,10.20
2018-08-30T11:23:38.691Z,10.47
2018-08-30T11:26:07.181Z,9.05
2018-08-30T11:28:35.677Z,9.63
2018-08-30T11:31:04.081Z,9.43
2018-08-30T11:33:32.484Z,9.30
2018-08-30T11:36:00.931Z,8.80
2018-08-30T11:38:29.403Z,9.57
2018-08-30T11:40:57.825Z,8.68
2018-08-30T11:43:26.395Z,9.83
2018-08-30T11:45:54.823Z,8.83
2018-08-30T11:48:23.298Z,10.07
2018-08-30T11:50:51.734Z,10.17
2018-08-30T11:53:20.606Z,10.40
2018-08-30T11:55:49.216Z,10.23
2018-08-30T11:58:17.968Z,10.13
2018-08-30T12:00:47.064Z,9.18
2018-08-30T12:03:15.440Z,9.73
2018-08-30T12:05:44.513Z,9.50
2018-08-30T12:08:13.004Z,10.72
2018-08-30T12:13:30.964Z,10.30
2018-08-30T12:15:59.428Z,9.55
2018-08-30T12:18:29.417Z,9.13
2018-08-30T12:20:57.897Z,8.83
2018-08-30T12:23:26.439Z,9.05
2018-08-30T12:25:55.499Z,10.10
2018-08-30T12:28:24.013Z,9.90
2018-08-30T12:30:55.467Z,9.98
2018-08-30T12:33:23.863Z,9.08
2018-08-30T12:35:52.574Z,8.58
2018-08-30T12:38:20.814Z,8.83
2018-08-30T12:40:49.916Z,8.35
2018-08-30T12:43:18.387Z,9.10
2018-08-30T12:45:47.341Z,9.47
2018-08-30T12:48:15.947Z,9.37
2018-08-30T12:50:44.632Z,9.33
2018-08-30T12:53:12.946Z,9.58
2018-08-30T12:55:42.160Z,9.03
2018-08-30T12:58:11.216Z,8.65
2018-08-30T13:00:39.924Z,8.70
2018-08-30T13:03:09.034Z,7.50
2018-08-30T13:05:38.033Z,7.70
2018-08-30T13:08:06.733Z,7.55
2018-08-30T13:10:35.402Z,8.30
2018-08-30T13:13:04.013Z,8.00
2018-08-30T13:15:32.824Z,6.77
2018-08-30T13:18:01.208Z,6.20
2018-08-30T13:20:29.646Z,7.10
2018-08-30T13:22:58.359Z,6.73
2018-08-30T13:25:27.466Z,6.05
2018-08-30T13:27:55.860Z,6.90
2018-08-30T13:30:24.652Z,6.27
2018-08-30T13:32:53.020Z,6.33
2018-08-30T13:35:21.733Z,7.28
2018-08-30T13:37:51.186Z,6.47
2018-08-30T13:40:19.753Z,7.00
2018-08-30T13:42:48.216Z,7.40
2018-08-30T13:45:16.521Z,6.73
2018-08-30T13:47:45.171Z,6.95
2018-08-30T13:50:13.990Z,7.30
2018-08-30T13:52:42.667Z,6.90
2018-08-30T13:55:11.159Z,6.95
2018-08-30T13:57:40.082Z,5.60
2018-08-30T14:00:08.487Z,5.50
2018-08-30T14:02:36.840Z,5.42
2018-08-30T14:05:06.151Z,6.53
2018-08-30T14:07:34.722Z,6.60
2018-08-30T14:10:03.137Z,5.90
2018-08-30T14:12:31.412Z,6.77
2018-08-30T14:14:59.828Z,5.40
2018-08-30T14:17:27.950Z,6.67
2018-08-30T14:19:56.389Z,5.50
2018-08-30T14:22:24.809Z,6.00
2018-08-30T14:24:53.197Z,5.97
2018-08-30T14:27:21.647Z,5.85
2018-08-30T14:29:50.036Z,6.40
2018-08-30T14:32:18.467Z,5.50
2018-08-30T14:34:46.821Z,5.47
2018-08-30T14:37:15.234Z,6.00
2018-08-30T14:39:44.511Z,6.20
2018-08-30T14:42:12.957Z,5.43
2018-08-30T14:44:41.440Z,5.50
2018-08-30T14:47:09.794Z,6.30
2018-08-30T14:49:38.152Z,5.90
2018-08-30T14:52:07.303Z,5.55
2018-08-30T14:54:35.856Z,5.30
2018-08-30T14:57:04.207Z,5.23
2018-08-30T14:59:32.600Z,4.70
2018-08-30T15:02:01.116Z,4.70
2018-08-30T15:04:29.576Z,3.73
2018-08-30T15:06:58.047Z,3.97
2018-08-30T15:09:26.473Z,4.25
2018-08-30T15:11:54.946Z,3.98
2018-08-30T15:14:23.774Z,4.05
2018-08-30T15:16:52.261Z,3.80
2018-08-30T15:19:20.622Z,3.72
2018-08-30T15:21:49.034Z,4.10
2018-08-30T15:24:18.415Z,3.87
2018-08-30T15:26:47.099Z,4.53
2018-08-30T15:29:15.436Z,3.72
2018-08-30T15:31:43.933Z,3.53
2018-08-30T15:34:12.258Z,4.00
2018-08-30T15:36:40.685Z,4.27
2018-08-30T15:39:09.968Z,3.60
2018-08-30T15:41:38.527Z,3.80
2018-08-30T15:44:06.921Z,3.63
2018-08-30T15:46:35.358Z,3.85
2018-08-30T15:49:03.816Z,3.83
2018-08-30T15:51:32.263Z,3.30
2018-08-30T15:54:00.769Z,3.22
2018-08-30T15:56:30.016Z,3.73
2018-08-30T15:58:58.464Z,3.97
2018-08-30T16:01:26.923Z,3.50
2018-08-30T16:03:55.433Z,3.65
2018-08-30T16:06:23.748Z,3.70
2018-08-30T16:08:52.177Z,3.40
2018-08-30T16:11:20.697Z,3.85
2018-08-30T16:13:49.094Z,4.03
2018-08-30T16:16:17.549Z,3.80
2018-08-30T16:18:46.061Z,3.80
2018-08-30T16:21:14.486Z,4.93
2018-08-30T16:23:43.014Z,4.30
2018-08-30T16:26:11.392Z,3.90
2018-08-30T16:28:39.824Z,4.55
2018-08-30T16:31:08.337Z,4.10
2018-08-30T16:33:36.669Z,4.30
2018-08-30T16:36:05.101Z,4.17
2018-08-30T16:38:33.493Z,4.03
2018-08-30T16:41:01.984Z,4.17
2018-08-30T16:43:30.408Z,3.65
2018-08-30T16:45:58.834Z,4.08
2018-08-30T16:48:27.469Z,3.98
2018-08-30T16:50:55.886Z,4.53
2018-08-30T16:53:24.347Z,4.60
2018-08-30T16:55:52.701Z,4.03
2018-08-30T16:58:21.747Z,4.47
2018-08-30T17:00:50.254Z,4.63
2018-08-30T17:03:18.664Z,4.12
2018-08-30T17:05:47.149Z,4.30
2018-08-30T17:08:15.598Z,3.77
2018-08-30T17:10:44.140Z,3.83
2018-08-30T17:13:12.456Z,3.60
2018-08-30T17:15:40.914Z,3.43
2018-08-30T17:18:09.296Z,3.33
2018-08-30T17:20:43.395Z,3.30
2018-08-30T17:23:11.980Z,3.30
2018-08-30T17:25:40.848Z,3.25
2018-08-30T17:28:09.283Z,3.77
2018-08-30T17:30:37.895Z,3.20
2018-08-30T17:33:06.458Z,3.65
2018-08-30T17:35:34.825Z,3.50
2018-08-30T17:38:03.356Z,3.50
2018-08-30T17:40:31.798Z,2.90
2018-08-30T17:43:00.372Z,2.87
2018-08-30T17:45:30.803Z,2.90
2018-08-30T17:47:59.464Z,2.77
2018-08-30T17:50:28.055Z,3.02
2018-08-30T17:57:56.902Z,2.43
2018-08-30T18:00:26.738Z,2.43
2018-08-30T18:02:56.085Z,2.80
2018-08-30T18:05:24.709Z,3.00
2018-08-30T18:07:53.201Z,2.93
2018-08-30T18:10:21.657Z,3.20
2018-08-30T18:12:50.681Z,3.10
2018-08-30T18:15:19.518Z,3.23
2018-08-30T18:17:49.691Z,3.05
2018-08-30T18:20:18.179Z,3.30
2018-08-30T18:22:46.660Z,3.10
2018-08-30T18:25:15.723Z,3.20
2018-08-30T18:27:44.575Z,3.73
2018-08-30T18:30:12.989Z,3.00
2018-08-30T18:32:43.477Z,3.17
2018-08-30T18:35:14.018Z,3.47
2018-08-30T18:37:42.500Z,3.12
2018-08-30T18:40:12.637Z,3.27
2018-08-30T18:42:43.017Z,3.43
2018-08-30T18:45:12.484Z,2.70
2018-08-30T18:47:42.337Z,3.20
2018-08-30T18:50:11.096Z,2.95
2018-08-30T18:52:40.944Z,3.20
2018-08-30T18:55:11.309Z,3.25
2018-08-30T18:57:43.848Z,4.10
2018-08-30T19:00:15.378Z,3.70
2018-08-30T19:02:45.865Z,3.73
2018-08-30T19:05:14.455Z,3.35
2018-08-30T19:07:42.901Z,3.37
2018-08-30T19:10:12.752Z,3.55
2018-08-30T19:12:44.156Z,3.60
2018-08-30T19:15:20.528Z,3.23
2018-08-30T19:17:55.296Z,3.33
2018-08-30T19:20:24.437Z,3.00
2018-08-30T19:22:57.109Z,2.83
2018-08-30T19:25:29.338Z,3.30
2018-08-30T19:27:59.584Z,3.30
2018-08-30T19:30:30.645Z,3.13
2018-08-30T19:33:01.323Z,3.50
2018-08-30T19:35:37.574Z,3.40
2018-08-30T19:38:09.360Z,3.03
2018-08-30T19:40:43.746Z,3.47
2018-08-30T19:43:14.533Z,3.60
2018-08-30T19:45:43.883Z,2.57
2018-08-30T19:48:12.589Z,2.75
2018-08-30T19:50:41.233Z,3.37
2018-08-30T19:53:09.733Z,3.03
2018-08-30T19:55:38.643Z,3.10
2018-08-30T19:58:09.918Z,3.30
2018-08-30T20:00:38.556Z,2.92
2018-08-30T20:03:08.240Z,3.27
2018-08-30T20:05:37.684Z,3.20
2018-08-30T20:08:06.976Z,3.42
2018-08-30T20:10:35.417Z,3.90
2018-08-30T20:13:04.479Z,3.83
2018-08-30T20:15:33.816Z,3.63
2018-08-30T20:18:03.249Z,3.20
2018-08-30T20:20:31.768Z,3.80
2018-08-30T20:23:00.335Z,3.33
2018-08-30T20:25:28.741Z,3.27
2018-08-30T20:27:57.193Z,3.72
2018-08-30T20:30:26.916Z,3.43
2018-08-30T20:32:55.341Z,3.70
2018-08-30T20:35:24.246Z,3.77
2018-08-30T20:37:52.681Z,3.87
2018-08-30T20:40:21.527Z,3.67
2018-08-30T20:42:49.975Z,3.90
2018-08-30T20:45:18.506Z,3.87
2018-08-30T20:47:47.164Z,3.50
2018-08-30T20:50:15.555Z,3.17
2018-08-30T20:52:44.451Z,4.05
2018-08-30T20:55:13.731Z,3.50
2018-08-30T20:57:42.898Z,3.47
2018-08-30T21:00:11.520Z,3.42
2018-08-30T21:02:40.907Z,3.80
2018-08-30T21:05:09.949Z,3.70
2018-08-30T21:07:39.205Z,3.67
2018-08-30T21:10:09.301Z,3.60
2018-08-30T21:12:37.791Z,4.03
2018-08-30T21:15:07.392Z,3.40
2018-08-30T21:17:35.867Z,4.10
2018-08-30T21:20:04.918Z,3.93
2018-08-30T21:22:33.397Z,3.70
2018-08-30T21:25:01.961Z,3.60
2018-08-30T21:27:31.615Z,3.37
2018-08-30T21:30:00.719Z,3.63
2018-08-30T21:32:29.732Z,3.80
2018-08-30T21:34:59.266Z,3.83
2018-08-30T21:37:27.903Z,3.52
2018-08-30T21:39:57.833Z,3.90
2018-08-30T21:42:28.062Z,3.47
2018-08-30T21:44:56.752Z,3.27
2018-08-30T21:47:25.345Z,3.73
2018-08-30T21:49:53.972Z,3.22
2018-08-30T21:52:23.157Z,3.55
2018-08-30T21:54:51.905Z,3.92
2018-08-30T21:57:20.650Z,3.53
2018-08-30T21:59:49.313Z,3.30
2018-08-30T22:02:18.003Z,3.27
2018-08-30T22:04:46.761Z,4.17
2018-08-30T22:07:15.505Z,4.00
2018-08-30T22:09:44.042Z,3.43
2018-08-30T22:12:12.618Z,3.40
2018-08-30T22:14:42.926Z,3.77
2018-08-30T22:17:11.581Z,3.92
2018-08-30T22:19:40.882Z,3.50
2018-08-30T22:22:09.553Z,4.13
2018-08-30T22:24:38.148Z,4.10
2018-08-30T22:27:06.313Z,3.90
2018-08-30T22:29:35.060Z,4.20
2018-08-30T22:32:03.897Z,4.07
2018-08-30T22:34:32.680Z,4.40
2018-08-30T22:37:01.376Z,3.37
2018-08-30T22:39:30.012Z,3.40
2018-08-30T22:41:58.666Z,4.60
2018-08-30T22:44:27.547Z,3.53
2018-08-30T22:46:56.310Z,3.60
2018-08-30T22:49:24.828Z,5.17
2018-08-30T22:51:53.980Z,3.30
2018-08-30T22:54:22.911Z,3.10
2018-08-30T22:56:51.364Z,3.53
2018-08-30T22:59:19.835Z,3.65
2018-08-30T23:01:48.438Z,3.27
2018-08-30T23:04:17.214Z,3.00
2018-08-30T23:06:47.121Z,3.30
2018-08-30T23:09:17.043Z,3.40
2018-08-30T23:11:46.350Z,3.07
2018-08-30T23:14:15.956Z,3.90
2018-08-30T23:16:45.214Z,3.60
2018-08-30T23:19:16.876Z,3.70
2018-08-30T23:21:46.255Z,3.20
2018-08-30T23:24:15.872Z,3.27
2018-08-30T23:26:46.015Z,3.67
2018-08-30T23:29:15.172Z,4.30
2018-08-30T23:31:44.185Z,3.67
2018-08-30T23:34:16.742Z,3.60
2018-08-30T23:36:45.210Z,3.87
2018-08-30T23:39:13.644Z,3.50
2018-08-30T23:41:42.044Z,3.43
2018-08-30T23:44:10.906Z,3.73
2018-08-30T23:46:42.143Z,4.00
2018-08-30T23:49:13.939Z,3.20
2018-08-30T23:51:44.946Z,4.15
2018-08-30T23:54:13.714Z,3.63
2018-08-30T23:56:42.240Z,3.40
2018-08-30T23:59:22.406Z,3.80
